createdAt,value
2016-11-17T00:00:28.230Z,89.6
2016-11-17T00:01:43.299Z,89.89
2016-11-17T00:02:58.313Z,90.17
2016-11-17T00:04:12.797Z,89.75
2016-11-17T00:05:27.834Z,90.26
2016-11-17T00:06:42.409Z,89.6
2016-11-17T00:07:57.408Z,89.6
2016-11-17T00:09:12.407Z,90.12
2016-11-17T00:10:27.085Z,89.79
2016-11-17T00:11:42.224Z,89.94
2016-11-17T00:13:12.296Z,90.45
2016-11-17T00:14:27.178Z,90.22
2016-11-17T00:15:42.607Z,90.03
2016-11-17T00:16:57.996Z,89.46
2016-11-17T00:18:12.591Z,90.17
2016-11-17T00:19:42.136Z,89.94
2016-11-17T00:20:57.618Z,89.98
2016-11-17T00:22:12.166Z,89.84
2016-11-17T00:28:37.894Z,90.12
2016-11-17T00:29:52.466Z,90.22
2016-11-17T00:31:07.034Z,89.55
2016-11-17T00:32:21.934Z,89.75
2016-11-17T00:33:37.366Z,89.65
2016-11-17T00:34:52.397Z,89.26
2016-11-17T00:36:06.960Z,89.79
2016-11-17T00:37:21.564Z,89.98
2016-11-17T00:38:39.114Z,89.55
2016-11-17T00:39:54.861Z,89.6
2016-11-17T00:43:23.013Z,89.65
2016-11-17T00:44:37.890Z,89.46
2016-11-17T00:45:52.642Z,90.08
2016-11-17T00:47:07.677Z,89.75
2016-11-17T00:48:22.287Z,89.94
2016-11-17T00:49:37.605Z,89.75
2016-11-17T00:50:52.133Z,89.84
2016-11-17T00:52:06.856Z,90.12
2016-11-17T00:53:21.706Z,89.79
2016-11-17T00:54:36.691Z,89.31
2016-11-17T00:55:51.506Z,89.84
2016-11-17T00:57:06.056Z,89.5
2016-11-17T00:58:21.111Z,89.31
2016-11-17T00:59:35.659Z,89.65
2016-11-17T01:00:50.330Z,89.89
2016-11-17T01:02:04.944Z,89.79
2016-11-17T01:03:19.805Z,89.6
2016-11-17T01:04:35.002Z,89.55
2016-11-17T01:05:49.881Z,89.69
2016-11-17T01:07:04.437Z,89.89
2016-11-17T01:08:19.415Z,89.22
2016-11-17T01:09:34.992Z,89.89
2016-11-17T01:10:49.936Z,89.22
2016-11-17T01:12:04.554Z,89.31
2016-11-17T01:13:19.033Z,89.03
2016-11-17T01:14:33.727Z,89.69
2016-11-17T01:15:49.360Z,89.6
2016-11-17T01:17:04.258Z,89.65
2016-11-17T01:18:18.768Z,89.31
2016-11-17T01:19:33.510Z,89.5
2016-11-17T01:20:48.013Z,89.31
2016-11-17T01:22:02.868Z,89.4
2016-11-17T01:23:17.824Z,88.84
2016-11-17T01:24:32.472Z,88.84
2016-11-17T01:25:47.080Z,88.93
2016-11-17T01:27:01.838Z,88.93
2016-11-17T01:28:16.588Z,89.12
2016-11-17T01:29:31.738Z,89.22
2016-11-17T01:30:46.367Z,89.12
2016-11-17T01:32:01.149Z,89.12
2016-11-17T01:33:16.412Z,89.12
2016-11-17T01:34:31.046Z,89.22
2016-11-17T01:35:46.297Z,88.93
2016-11-17T01:37:01.597Z,89.31
2016-11-17T01:38:16.463Z,89.31
2016-11-17T01:39:46.187Z,88.93
2016-11-17T01:41:16.313Z,88.93
2016-11-17T01:42:45.576Z,89.22
2016-11-17T01:44:00.199Z,89.12
2016-11-17T01:47:44.116Z,88.93
2016-11-17T01:48:58.722Z,89.03
2016-11-17T01:50:13.115Z,89.22
2016-11-17T01:51:27.719Z,88.84
2016-11-17T01:52:42.432Z,88.93
2016-11-17T01:53:57.891Z,89.31
2016-11-17T01:55:12.769Z,88.84
2016-11-17T01:56:27.283Z,89.22
2016-11-17T01:57:41.805Z,89.22
2016-11-17T01:58:59.167Z,88.45
2016-11-17T02:00:14.516Z,88.64
2016-11-17T02:01:29.976Z,88.26
2016-11-17T02:02:44.689Z,88.64
2016-11-17T02:03:59.026Z,88.45
2016-11-17T02:05:13.604Z,88.26
2016-11-17T02:06:28.403Z,88.84
2016-11-17T02:07:43.405Z,88.84
2016-11-17T02:08:58.397Z,89.12
2016-11-17T02:11:42.127Z,89.03
2016-11-17T02:12:57.363Z,88.55
2016-11-17T02:14:12.392Z,88.64
2016-11-17T02:15:27.003Z,88.55
2016-11-17T02:16:41.891Z,88.36
2016-11-17T02:17:56.954Z,89.22
2016-11-17T02:19:13.494Z,88.84
2016-11-17T02:20:28.115Z,89.03
2016-11-17T02:21:42.735Z,89.31
2016-11-17T02:22:57.240Z,89.69
2016-11-17T02:24:12.080Z,89.07
2016-11-17T02:25:27.193Z,89.07
2016-11-17T02:26:41.975Z,89.36
2016-11-17T02:27:57.009Z,89.75
2016-11-17T02:29:11.965Z,89.36
2016-11-17T02:30:26.583Z,89.26
2016-11-17T02:31:41.819Z,89.46
2016-11-17T02:32:56.411Z,89.46
2016-11-17T02:34:11.061Z,89.65
2016-11-17T02:35:26.212Z,89.55
2016-11-17T02:36:41.230Z,89.07
2016-11-17T02:37:57.332Z,89.46
2016-11-17T02:39:11.931Z,89.36
2016-11-17T02:40:27.145Z,89.94
2016-11-17T02:41:41.767Z,89.55
2016-11-17T02:42:56.852Z,89.55
2016-11-17T02:44:12.211Z,90.22
2016-11-17T02:45:27.181Z,90.22
2016-11-17T02:46:41.996Z,90.22
2016-11-17T02:47:56.815Z,90.03
2016-11-17T02:49:11.678Z,90.22
2016-11-17T02:50:27.300Z,90.03
2016-11-17T02:51:56.835Z,90.31
2016-11-17T02:53:11.658Z,90.22
2016-11-17T02:54:26.294Z,90.41
2016-11-17T02:55:41.440Z,90.12
2016-11-17T02:56:56.794Z,90.31
2016-11-17T02:58:11.605Z,90.5
2016-11-17T02:59:26.383Z,89.94
2016-11-17T03:00:41.713Z,90.5
2016-11-17T03:01:57.357Z,90.36
2016-11-17T03:03:12.661Z,90.27
2016-11-17T03:04:27.083Z,90.36
2016-11-17T03:05:41.742Z,89.65
2016-11-17T03:06:56.318Z,89.65
2016-11-17T03:08:11.437Z,90.22
2016-11-17T03:09:28.102Z,89.55
2016-11-17T03:10:47.658Z,89.61
2016-11-17T03:12:02.465Z,89.94
2016-11-17T03:13:17.431Z,90.22
2016-11-17T03:14:32.583Z,90.03
2016-11-17T03:15:47.340Z,90.03
2016-11-17T03:17:04.247Z,90.22
2016-11-17T03:18:18.704Z,90.41
2016-11-17T03:19:33.762Z,89.75
2016-11-17T03:20:48.819Z,89.94
2016-11-17T03:22:03.881Z,90.31
2016-11-17T03:23:18.434Z,90.7
2016-11-17T03:24:32.949Z,90.03
2016-11-17T03:25:47.671Z,90.46
2016-11-17T03:27:02.625Z,90.94
2016-11-17T03:28:17.443Z,90.75
2016-11-17T03:29:31.857Z,90.56
2016-11-17T03:30:46.311Z,90.75
2016-11-17T03:32:00.730Z,90.03
2016-11-17T03:33:15.832Z,90.17
2016-11-17T03:34:30.600Z,90.03
2016-11-17T03:35:45.089Z,90.36
2016-11-17T03:37:00.090Z,90.6
2016-11-17T03:38:14.775Z,90.41
2016-11-17T03:39:30.217Z,90.36
2016-11-17T03:40:45.117Z,90.17
2016-11-17T03:42:00.135Z,90.36
2016-11-17T03:43:14.569Z,90.56
2016-11-17T03:44:29.025Z,90.5
2016-11-17T03:45:43.806Z,90.46
2016-11-17T03:48:28.206Z,90.17
2016-11-17T03:49:43.035Z,89.79
2016-11-17T03:50:58.119Z,89.79
2016-11-17T03:55:25.020Z,89.84
2016-11-17T03:56:39.607Z,90.17
2016-11-17T03:57:54.561Z,89.36
2016-11-17T03:59:09.619Z,89.84
2016-11-17T04:00:24.270Z,90.36
2016-11-17T04:01:39.218Z,90.27
2016-11-17T04:02:54.003Z,90.5
2016-11-17T04:04:08.620Z,90.56
2016-11-17T04:05:23.599Z,90.84
2016-11-17T04:06:38.305Z,90.94
2016-11-17T04:08:22.268Z,90.56
2016-11-17T04:09:37.567Z,90.65
2016-11-17T04:10:53.092Z,90.75
2016-11-17T04:12:07.682Z,90.75
2016-11-17T04:13:22.293Z,91.13
2016-11-17T04:14:37.217Z,90.75
2016-11-17T04:15:52.283Z,90.75
2016-11-17T04:17:07.020Z,90.94
2016-11-17T04:18:21.377Z,90.65
2016-11-17T04:19:51.335Z,90.27
2016-11-17T04:21:06.233Z,90.56
2016-11-17T04:22:20.872Z,90.56
2016-11-17T04:23:35.478Z,90.94
2016-11-17T04:25:05.253Z,90.46
2016-11-17T04:26:20.431Z,90.65
2016-11-17T04:27:34.874Z,90.84
2016-11-17T04:31:46.745Z,90.94
2016-11-17T04:33:02.107Z,91.31
2016-11-17T04:34:17.092Z,91.22
2016-11-17T04:35:31.736Z,91.13
2016-11-17T04:36:46.525Z,91.22
2016-11-17T04:40:34.738Z,90.56
2016-11-17T04:42:12.418Z,90.56
2016-11-17T04:43:36.603Z,90.75
2016-11-17T04:46:36.794Z,91.13
2016-11-17T04:47:54.380Z,90.84
2016-11-17T04:49:08.951Z,91.22
2016-11-17T04:50:23.626Z,91.03
2016-11-17T04:51:39.024Z,92.18
2016-11-17T04:52:53.957Z,91.41
2016-11-17T04:54:09.156Z,91.22
2016-11-17T04:55:24.066Z,91.22
2016-11-17T04:56:38.597Z,91.27
2016-11-17T04:57:53.515Z,91.89
2016-11-17T04:59:08.886Z,91.99
2016-11-17T05:00:23.635Z,91.79
2016-11-17T05:01:38.573Z,91.6
2016-11-17T05:02:53.233Z,91.31
2016-11-17T05:04:08.556Z,91.41
2016-11-17T05:05:23.741Z,91.55
2016-11-17T05:06:38.629Z,91.51
2016-11-17T05:07:53.328Z,91.65
2016-11-17T05:09:08.373Z,91.79
2016-11-17T05:10:24.109Z,92.74
2016-11-17T05:11:39.292Z,91.99
2016-11-17T05:12:54.572Z,92.46
2016-11-17T05:14:09.336Z,92.18
2016-11-17T05:15:23.978Z,92.46
2016-11-17T05:16:39.303Z,92.5
2016-11-17T05:17:55.764Z,92.55
2016-11-17T05:19:10.576Z,92.74
2016-11-17T05:20:26.261Z,93.13
2016-11-17T05:21:40.631Z,92.98
2016-11-17T05:22:55.611Z,91.94
2016-11-17T05:24:11.289Z,90.64
2016-11-17T05:25:25.978Z,89.6
2016-11-17T05:26:40.578Z,90.26
2016-11-17T05:27:55.223Z,90.5
2016-11-17T05:29:10.330Z,90.7
2016-11-17T05:30:25.544Z,91.27
2016-11-17T05:31:40.900Z,91.55
2016-11-17T05:34:26.327Z,91.84
2016-11-17T05:35:42.158Z,92.89
2016-11-17T05:36:57.357Z,92.41
2016-11-17T05:38:12.729Z,92.41
2016-11-17T05:39:27.649Z,91.84
2016-11-17T05:40:42.280Z,92.32
2016-11-17T05:41:56.967Z,91.94
2016-11-17T05:43:11.376Z,91.94
2016-11-17T05:44:26.401Z,91.84
2016-11-17T05:45:41.351Z,92.41
2016-11-17T05:46:56.398Z,92.27
2016-11-17T05:48:11.298Z,92.5
2016-11-17T05:49:40.817Z,92.32
2016-11-17T05:50:55.988Z,92.5
2016-11-17T05:52:10.948Z,93.08
2016-11-17T05:53:25.851Z,92.32
2016-11-17T05:54:40.799Z,92.6
2016-11-17T05:55:56.762Z,92.32
2016-11-17T05:57:11.683Z,92.41
2016-11-17T05:58:26.430Z,93.08
2016-11-17T05:59:43.790Z,92.94
2016-11-17T06:00:58.673Z,92.79
2016-11-17T06:02:13.670Z,92.98
2016-11-17T06:03:28.642Z,92.89
2016-11-17T06:04:57.934Z,93.7
2016-11-17T06:06:13.286Z,92.84
2016-11-17T06:07:28.241Z,92.98
2016-11-17T06:08:42.887Z,93.22
2016-11-17T06:09:57.590Z,93.32
2016-11-17T06:11:12.458Z,93.51
2016-11-17T06:12:27.151Z,93.03
2016-11-17T06:13:41.965Z,93.55
2016-11-17T06:14:56.463Z,93.55
2016-11-17T06:16:11.203Z,94.03
2016-11-17T06:17:25.977Z,94.17
2016-11-17T06:18:40.853Z,93.98
2016-11-17T06:19:55.674Z,93.74
2016-11-17T06:21:10.840Z,93.89
2016-11-17T06:22:25.949Z,93.89
2016-11-17T06:23:40.915Z,93.6
2016-11-17T06:24:55.753Z,93.79
2016-11-17T06:26:10.104Z,94.08
2016-11-17T06:27:24.909Z,93.98
2016-11-17T06:28:39.630Z,94.08
2016-11-17T06:29:54.263Z,94.32
2016-11-17T06:31:08.839Z,93.27
2016-11-17T06:32:23.334Z,93.46
2016-11-17T06:33:38.523Z,94.37
2016-11-17T06:34:53.298Z,93.55
2016-11-17T06:36:08.316Z,93.17
2016-11-17T06:40:20.222Z,93.46
2016-11-17T06:41:35.011Z,93.55
2016-11-17T06:42:50.208Z,93.27
2016-11-17T06:44:05.422Z,93.37
2016-11-17T06:45:20.512Z,93.17
2016-11-17T06:46:35.125Z,93.27
2016-11-17T06:47:49.979Z,93.27
2016-11-17T06:49:04.905Z,92.98
2016-11-17T06:50:20.417Z,93.08
2016-11-17T06:51:35.159Z,93.08
2016-11-17T06:52:50.059Z,93.46
2016-11-17T06:54:05.349Z,93.37
2016-11-17T06:55:20.210Z,93.46
2016-11-17T06:56:49.761Z,93.46
2016-11-17T06:58:04.552Z,94.13
2016-11-17T06:59:19.335Z,94.13
2016-11-17T07:00:34.309Z,94.03
2016-11-17T07:01:50.099Z,93.93
2016-11-17T07:03:05.872Z,93.65
2016-11-17T07:04:21.190Z,94.79
2016-11-17T07:05:35.533Z,93.6
2016-11-17T07:06:50.401Z,95.27
2016-11-17T07:08:05.204Z,94.22
2016-11-17T07:09:19.764Z,94.84
2016-11-17T07:10:34.393Z,94.93
2016-11-17T07:11:49.273Z,94.74
2016-11-17T07:13:04.196Z,94.46
2016-11-17T07:14:19.573Z,94.74
2016-11-17T07:15:34.564Z,94.79
2016-11-17T07:16:49.839Z,94.6
2016-11-17T07:18:04.768Z,94.79
2016-11-17T07:19:22.020Z,94.6
2016-11-17T07:20:36.297Z,94.89
2016-11-17T07:21:51.200Z,94.79
2016-11-17T07:23:21.179Z,93.84
2016-11-17T07:24:36.286Z,93.65
2016-11-17T07:25:50.779Z,93.93
2016-11-17T07:27:05.478Z,94.03
2016-11-17T07:28:20.149Z,93.84
2016-11-17T07:29:35.353Z,94.13
2016-11-17T07:30:50.447Z,93.65
2016-11-17T07:32:05.055Z,93.46
2016-11-17T07:33:19.871Z,93.27
2016-11-17T07:34:35.130Z,94.22
2016-11-17T07:35:49.561Z,93.93
2016-11-17T07:37:04.456Z,93.93
2016-11-17T07:38:19.586Z,94.22
2016-11-17T07:39:34.659Z,93.84
2016-11-17T07:40:49.941Z,94.22
2016-11-17T07:42:05.535Z,93.6
2016-11-17T07:43:20.350Z,93.46
2016-11-17T07:44:35.477Z,93.37
2016-11-17T07:45:50.447Z,93.17
2016-11-17T07:48:49.761Z,93.17
2016-11-17T07:50:04.593Z,93.17
2016-11-17T07:51:19.485Z,93.17
2016-11-17T07:52:34.248Z,92.79
2016-11-17T07:53:48.760Z,92.69
2016-11-17T07:55:03.161Z,92.89
2016-11-17T07:56:18.840Z,92.89
2016-11-17T07:57:33.831Z,92.89
2016-11-17T07:58:49.374Z,92.89
2016-11-17T08:00:03.970Z,92.5
2016-11-17T08:01:18.741Z,92.6
2016-11-17T08:02:33.787Z,92.6
2016-11-17T08:03:48.799Z,92.22
2016-11-17T08:05:03.727Z,92.13
2016-11-17T08:06:18.505Z,92.22
2016-11-17T08:07:33.025Z,92.22
2016-11-17T08:08:48.392Z,91.46
2016-11-17T08:10:03.629Z,92.08
2016-11-17T08:11:19.078Z,91.22
2016-11-17T08:12:34.170Z,91.31
2016-11-17T08:13:48.955Z,91.31
2016-11-17T08:15:03.975Z,91.03
2016-11-17T08:16:19.037Z,91.13
2016-11-17T08:17:33.927Z,91.22
2016-11-17T08:18:48.932Z,91.13
2016-11-17T08:20:04.134Z,90.93
2016-11-17T08:21:19.427Z,90.45
2016-11-17T08:22:33.922Z,91.22
2016-11-17T08:23:48.915Z,91.36
2016-11-17T08:25:04.337Z,91.03
2016-11-17T08:26:19.116Z,91.22
2016-11-17T08:27:34.437Z,91.22
2016-11-17T08:28:49.114Z,90.89
2016-11-17T08:30:04.377Z,90.93
2016-11-17T08:31:19.422Z,90.64
2016-11-17T08:32:34.077Z,91.03
2016-11-17T08:33:49.633Z,91.13
2016-11-17T08:35:04.360Z,90.98
2016-11-17T08:36:20.474Z,92.17
2016-11-17T08:37:38.150Z,91.94
2016-11-17T08:39:08.090Z,90.84
2016-11-17T08:40:22.882Z,90.45
2016-11-17T08:41:38.148Z,89.98
2016-11-17T08:42:53.298Z,90.08
2016-11-17T08:44:07.896Z,90.36
2016-11-17T08:45:22.775Z,90.08
2016-11-17T08:46:37.603Z,89.69
2016-11-17T08:47:52.043Z,90.08
2016-11-17T08:49:07.893Z,89.79
2016-11-17T08:50:23.014Z,89.5
2016-11-17T08:51:38.475Z,89.69
2016-11-17T08:52:53.189Z,89.5
2016-11-17T08:54:08.103Z,89.69
2016-11-17T08:55:22.791Z,89.31
2016-11-17T08:56:37.631Z,89.6
2016-11-17T08:57:52.263Z,89.5
2016-11-17T08:59:07.136Z,89.6
2016-11-17T09:00:21.865Z,89.22
2016-11-17T09:01:36.490Z,89.17
2016-11-17T09:02:51.059Z,88.31
2016-11-17T09:04:05.758Z,88.31
2016-11-17T09:05:20.540Z,88.12
2016-11-17T09:06:35.314Z,87.83
2016-11-17T09:07:50.675Z,87.83
2016-11-17T09:09:05.236Z,87.93
2016-11-17T09:10:19.931Z,87.26
2016-11-17T09:11:34.995Z,86.98
2016-11-17T09:12:49.831Z,86.98
2016-11-17T09:14:04.474Z,86.78
2016-11-17T09:15:19.080Z,86.69
2016-11-17T09:16:34.091Z,86.59
2016-11-17T09:17:49.471Z,86.4
2016-11-17T09:19:04.187Z,86.59
2016-11-17T09:20:19.068Z,86.49
2016-11-17T09:21:34.028Z,86.11
2016-11-17T09:22:48.558Z,85.39
2016-11-17T09:29:44.083Z,84.82
2016-11-17T09:30:59.694Z,84.92
2016-11-17T09:32:14.542Z,84.44
2016-11-17T09:33:29.372Z,83.58
2016-11-17T09:34:44.168Z,82.86
2016-11-17T09:35:59.250Z,82.95
2016-11-17T09:39:28.295Z,82.86
2016-11-17T09:40:43.158Z,82.86
2016-11-17T09:41:57.683Z,82.48
2016-11-17T09:43:12.991Z,82.29
2016-11-17T09:44:27.889Z,82.38
2016-11-17T09:45:43.268Z,83.05
2016-11-17T09:52:52.401Z,83.77
2016-11-17T09:54:08.087Z,83.77
2016-11-17T09:55:23.260Z,83.67
2016-11-17T09:56:37.829Z,83.87
2016-11-17T09:58:07.892Z,83.67
2016-11-17T09:59:22.980Z,83.67
2016-11-17T10:00:38.051Z,83.67
2016-11-17T10:01:52.854Z,83.11
2016-11-17T10:03:10.292Z,83.11
2016-11-17T10:04:25.000Z,83.67
2016-11-17T10:05:40.252Z,83.77
2016-11-17T10:06:55.664Z,84.44
2016-11-17T10:09:40.841Z,84.34
2016-11-17T10:10:55.890Z,83.87
2016-11-17T10:12:25.188Z,84.44
2016-11-17T10:13:40.169Z,84.72
2016-11-17T10:14:55.384Z,85.11
2016-11-17T10:16:10.036Z,85.35
2016-11-17T10:17:24.463Z,86.02
2016-11-17T10:18:39.305Z,85.73
2016-11-17T10:19:54.507Z,85.73
2016-11-17T10:21:10.591Z,85.25
2016-11-17T10:22:25.485Z,85.35
2016-11-17T10:23:40.217Z,85.64
2016-11-17T10:24:55.469Z,85.83
2016-11-17T10:26:10.777Z,86.21
2016-11-17T10:27:25.643Z,86.11
2016-11-17T10:28:41.021Z,86.11
2016-11-17T10:29:55.774Z,86.11
2016-11-17T10:31:11.209Z,85.54
2016-11-17T10:32:26.174Z,86.02
2016-11-17T10:33:55.665Z,86.69
2016-11-17T10:35:10.407Z,86.4
2016-11-17T10:36:39.961Z,86.49
2016-11-17T10:37:55.211Z,86.59
2016-11-17T10:39:10.276Z,86.59
2016-11-17T10:40:25.230Z,86.78
2016-11-17T10:41:40.245Z,86.4
2016-11-17T10:42:54.956Z,86.3
2016-11-17T10:44:10.593Z,86.78
2016-11-17T10:45:25.208Z,86.4
2016-11-17T10:46:54.375Z,86.59
2016-11-17T10:48:08.880Z,86.02
2016-11-17T10:49:23.837Z,86.3
2016-11-17T10:50:38.370Z,86.78
2016-11-17T10:51:53.200Z,87.16
2016-11-17T10:53:07.870Z,86.98
2016-11-17T10:54:22.745Z,87.64
2016-11-17T10:55:37.600Z,87.74
2016-11-17T10:56:52.790Z,87.93
2016-11-17T10:58:07.757Z,87.93
2016-11-17T10:59:22.221Z,87.93
2016-11-17T11:00:37.019Z,88.21
2016-11-17T11:02:06.613Z,88.98
2016-11-17T11:03:21.937Z,88.12
2016-11-17T11:04:36.692Z,88.31
2016-11-17T11:05:51.940Z,87.83
2016-11-17T11:07:06.363Z,87.83
2016-11-17T11:08:21.164Z,87.83
2016-11-17T11:09:37.019Z,87.83
2016-11-17T11:10:51.867Z,87.83
2016-11-17T11:12:06.556Z,87.83
2016-11-17T11:13:20.988Z,88.12
2016-11-17T11:14:35.666Z,88.02
2016-11-17T11:15:51.137Z,86.98
2016-11-17T11:17:06.874Z,86.98
2016-11-17T11:18:21.973Z,86.92
2016-11-17T11:19:36.511Z,86.78
2016-11-17T11:20:51.286Z,86.63
2016-11-17T11:23:38.341Z,86.06
2016-11-17T11:24:53.202Z,86.06
2016-11-17T11:26:07.719Z,85.97
2016-11-17T11:27:22.514Z,85.49
2016-11-17T11:28:37.377Z,85.01
2016-11-17T11:29:53.395Z,84.44
2016-11-17T11:31:08.165Z,84.44
2016-11-17T11:32:22.708Z,84.16
2016-11-17T11:33:38.546Z,84.16
2016-11-17T11:34:53.230Z,83.58
2016-11-17T11:36:07.872Z,83.2
2016-11-17T11:37:22.443Z,82.63
2016-11-17T11:38:36.893Z,82.91
2016-11-17T11:39:52.012Z,82.82
2016-11-17T11:41:06.772Z,82.34
2016-11-17T11:42:21.217Z,81.77
2016-11-17T11:43:35.760Z,81.58
2016-11-17T11:44:50.415Z,81.29
2016-11-17T11:46:06.433Z,81.58
2016-11-17T11:47:20.775Z,80.33
2016-11-17T11:48:35.670Z,80.62
2016-11-17T11:49:50.264Z,80.15
2016-11-17T11:51:04.931Z,80.24
2016-11-17T11:52:19.743Z,79.86
2016-11-17T11:53:34.647Z,79.19
2016-11-17T11:54:49.454Z,79.28
2016-11-17T11:56:04.584Z,78.91
2016-11-17T11:57:19.236Z,78.85
2016-11-17T11:58:33.984Z,77.89
2016-11-17T11:59:48.913Z,77.42
2016-11-17T12:01:04.639Z,77.7
2016-11-17T12:02:19.610Z,77.03
2016-11-17T12:03:34.113Z,76.46
2016-11-17T12:04:48.899Z,76.37
2016-11-17T12:06:03.745Z,76.56
2016-11-17T12:07:18.375Z,76.56
2016-11-17T12:08:32.977Z,75.98
2016-11-17T12:09:47.668Z,75.79
2016-11-17T12:11:02.730Z,75.22
2016-11-17T12:12:18.233Z,75.32
2016-11-17T12:13:33.471Z,75.03
2016-11-17T12:14:48.720Z,74.74
2016-11-17T12:16:03.449Z,73.88
2016-11-17T12:17:18.286Z,73.69
2016-11-17T12:18:33.323Z,73.6
2016-11-17T12:19:48.039Z,73.98
2016-11-17T12:21:02.967Z,72.83
